createdAt,value
2018-06-14T00:00:37.171Z,21.70
2018-06-14T00:01:37.151Z,22.30
2018-06-14T00:02:37.131Z,22.50
2018-06-14T00:03:37.110Z,24.90
2018-06-14T00:04:37.091Z,25.40
2018-06-14T00:05:37.069Z,23.60
2018-06-14T00:06:37.049Z,23.00
2018-06-14T00:07:37.031Z,22.40
2018-06-14T00:08:37.009Z,25.60
2018-06-14T00:09:36.988Z,23.50
2018-06-14T00:10:36.969Z,23.10
2018-06-14T00:11:36.949Z,22.10
2018-06-14T00:12:36.928Z,27.00
2018-06-14T00:13:36.909Z,23.90
2018-06-14T00:14:36.888Z,27.00
2018-06-14T00:15:36.869Z,23.60
2018-06-14T00:16:36.847Z,24.90
2018-06-14T00:17:36.827Z,23.20
2018-06-14T00:18:36.808Z,24.10
2018-06-14T00:19:37.539Z,23.20
2018-06-14T00:20:36.766Z,26.60
2018-06-14T00:21:36.746Z,23.70
2018-06-14T00:22:36.726Z,26.70
2018-06-14T00:23:36.710Z,23.30
2018-06-14T00:24:36.686Z,22.70
2018-06-14T00:25:36.669Z,24.30
2018-06-14T00:26:36.646Z,22.90
2018-06-14T00:27:36.627Z,23.90
2018-06-14T00:28:36.611Z,25.50
2018-06-14T00:29:36.584Z,21.00
2018-06-14T00:30:36.565Z,22.40
2018-06-14T00:31:36.545Z,22.80
2018-06-14T00:32:36.525Z,22.10
2018-06-14T00:33:36.503Z,23.00
2018-06-14T00:34:36.483Z,21.80
2018-06-14T00:35:37.215Z,22.10
2018-06-14T00:36:36.444Z,22.40
2018-06-14T00:37:36.425Z,24.50
2018-06-14T00:38:36.404Z,25.30
2018-06-14T00:39:36.387Z,23.50
2018-06-14T00:40:36.363Z,26.00
2018-06-14T00:41:36.344Z,28.60
2018-06-14T00:42:36.322Z,25.30
2018-06-14T00:43:36.303Z,22.70
2018-06-14T00:44:36.281Z,23.10
2018-06-14T00:45:36.263Z,24.80
2018-06-14T00:46:36.242Z,25.20
2018-06-14T00:47:36.221Z,24.30
2018-06-14T00:48:36.200Z,25.30
2018-06-14T00:49:36.180Z,22.20
2018-06-14T00:50:36.160Z,24.90
2018-06-14T00:51:36.141Z,26.10
2018-06-14T00:52:36.120Z,23.10
2018-06-14T00:53:36.100Z,27.90
2018-06-14T00:54:36.080Z,24.40
2018-06-14T00:55:36.060Z,23.50
2018-06-14T00:56:36.039Z,27.20
2018-06-14T00:57:36.018Z,26.40
2018-06-14T00:58:35.998Z,29.00
2018-06-14T00:59:35.979Z,22.80
2018-06-14T01:00:35.957Z,25.60
2018-06-14T01:01:35.940Z,25.80
2018-06-14T01:02:35.918Z,23.80
2018-06-14T01:03:35.897Z,27.00
2018-06-14T01:04:35.877Z,26.50
2018-06-14T01:05:35.857Z,25.00
2018-06-14T01:06:35.836Z,23.70
2018-06-14T01:07:35.817Z,23.60
2018-06-14T01:08:35.796Z,25.20
2018-06-14T01:09:35.775Z,29.10
2018-06-14T01:10:35.755Z,26.10
2018-06-14T01:11:35.735Z,30.60
2018-06-14T01:12:35.716Z,26.00
2018-06-14T01:13:35.695Z,27.30
2018-06-14T01:14:35.675Z,26.50
2018-06-14T01:15:35.655Z,28.00
2018-06-14T01:16:35.635Z,26.40
2018-06-14T01:17:35.612Z,30.00
2018-06-14T01:18:35.594Z,29.80
2018-06-14T01:19:35.573Z,29.00
2018-06-14T01:20:35.552Z,33.30
2018-06-14T01:21:35.531Z,29.30
2018-06-14T01:22:35.511Z,28.20
2018-06-14T01:23:35.495Z,33.20
2018-06-14T01:24:35.473Z,35.00
2018-06-14T01:25:35.451Z,29.30
2018-06-14T01:26:35.431Z,31.90
2018-06-14T01:27:35.410Z,28.50
2018-06-14T01:28:35.389Z,27.80
2018-06-14T01:29:35.369Z,27.90
2018-06-14T01:30:35.348Z,29.20
2018-06-14T01:31:35.327Z,28.70
2018-06-14T01:32:35.305Z,31.70
2018-06-14T01:33:35.285Z,32.60
2018-06-14T01:34:35.265Z,31.90
2018-06-14T01:35:35.244Z,28.50
2018-06-14T01:36:35.222Z,24.90
2018-06-14T01:37:35.202Z,30.60
2018-06-14T01:38:35.182Z,27.20
2018-06-14T01:39:35.161Z,28.10
2018-06-14T01:40:35.143Z,29.20
2018-06-14T01:41:35.169Z,29.20
2018-06-14T01:42:35.099Z,30.50
2018-06-14T01:43:35.080Z,29.40
2018-06-14T01:44:35.057Z,29.50
2018-06-14T01:45:35.038Z,31.90
2018-06-14T01:46:35.015Z,34.80
2018-06-14T01:47:34.996Z,30.30
2018-06-14T01:48:35.724Z,31.30
2018-06-14T01:49:34.952Z,32.10
2018-06-14T01:50:34.931Z,31.10
2018-06-14T01:51:34.911Z,30.60
2018-06-14T01:52:34.890Z,32.10
2018-06-14T01:53:34.870Z,36.20
2018-06-14T01:54:34.848Z,31.20
2018-06-14T01:55:34.828Z,31.00
2018-06-14T01:56:34.804Z,34.90
2018-06-14T01:57:34.785Z,32.10
2018-06-14T01:58:34.764Z,32.80
2018-06-14T01:59:34.743Z,32.70
2018-06-14T02:00:34.724Z,36.30
2018-06-14T02:01:34.700Z,39.80
2018-06-14T02:02:34.681Z,35.90
2018-06-14T02:03:34.659Z,35.10
2018-06-14T02:04:34.637Z,32.60
2018-06-14T02:05:34.615Z,33.30
2018-06-14T02:06:34.594Z,36.50
2018-06-14T02:07:34.574Z,32.80
2018-06-14T02:08:34.553Z,34.80
2018-06-14T02:09:34.532Z,36.10
2018-06-14T02:10:34.510Z,38.20
2018-06-14T02:11:34.489Z,38.00
2018-06-14T02:12:34.467Z,34.50
2018-06-14T02:13:34.446Z,34.50
2018-06-14T02:14:34.426Z,32.10
2018-06-14T02:15:34.405Z,36.00
2018-06-14T02:16:34.382Z,34.30
2018-06-14T02:17:34.362Z,30.60
2018-06-14T02:18:34.340Z,36.40
2018-06-14T02:19:34.320Z,38.50
2018-06-14T02:20:34.299Z,35.40
2018-06-14T02:21:34.277Z,35.60
2018-06-14T02:22:34.257Z,38.90
2018-06-14T02:23:34.235Z,41.60
2018-06-14T02:24:34.216Z,38.90
2018-06-14T02:25:34.192Z,37.00
2018-06-14T02:26:34.171Z,35.50
2018-06-14T02:27:34.150Z,37.50
2018-06-14T02:28:34.129Z,38.20
2018-06-14T02:29:34.108Z,38.10
2018-06-14T02:30:34.088Z,39.00
2018-06-14T02:31:34.065Z,32.60
2018-06-14T02:32:34.044Z,35.90
2018-06-14T02:33:34.026Z,35.30
2018-06-14T02:34:34.002Z,36.10
2018-06-14T02:35:35.484Z,39.30
2018-06-14T02:36:33.962Z,40.50
2018-06-14T02:37:33.938Z,38.10
2018-06-14T02:38:33.917Z,39.20
2018-06-14T02:39:33.899Z,38.60
2018-06-14T02:40:33.873Z,39.30
2018-06-14T02:41:34.603Z,38.00
2018-06-14T02:42:33.834Z,38.20
2018-06-14T02:43:33.811Z,39.80
2018-06-14T02:44:33.789Z,39.00
2018-06-14T02:45:33.776Z,40.90
2018-06-14T02:46:33.747Z,38.50
2018-06-14T02:47:33.727Z,45.00
2018-06-14T02:48:33.704Z,46.70
2018-06-14T02:49:33.684Z,40.80
2018-06-14T02:50:33.666Z,44.70
2018-06-14T02:51:33.640Z,40.30
2018-06-14T02:52:33.618Z,37.60
2018-06-14T02:53:33.597Z,43.70
2018-06-14T02:54:33.576Z,40.70
2018-06-14T02:55:33.555Z,42.90
2018-06-14T02:56:33.533Z,41.10
2018-06-14T02:57:33.512Z,37.80
2018-06-14T02:58:33.490Z,36.20
2018-06-14T02:59:33.471Z,37.60
2018-06-14T03:00:33.447Z,35.70
2018-06-14T03:01:33.427Z,36.10
2018-06-14T03:02:33.404Z,35.20
2018-06-14T03:03:33.386Z,36.30
2018-06-14T03:04:33.362Z,34.80
2018-06-14T03:05:33.357Z,35.40
2018-06-14T03:06:33.321Z,37.10
2018-06-14T03:07:33.299Z,39.20
2018-06-14T03:08:33.277Z,35.30
2018-06-14T03:09:33.257Z,34.60
2018-06-14T03:10:33.236Z,37.10
2018-06-14T03:11:33.214Z,38.00
2018-06-14T03:12:33.192Z,38.30
2018-06-14T03:13:33.172Z,44.70
2018-06-14T03:14:33.151Z,39.90
2018-06-14T03:15:33.134Z,40.50
2018-06-14T03:16:33.108Z,39.60
2018-06-14T03:17:33.086Z,39.30
2018-06-14T03:18:33.065Z,37.50
2018-06-14T03:19:33.044Z,43.60
2018-06-14T03:20:33.022Z,41.00
2018-06-14T03:21:33.003Z,38.90
2018-06-14T03:22:32.981Z,40.20
2018-06-14T03:23:32.959Z,41.80
2018-06-14T03:24:32.937Z,38.10
2018-06-14T03:25:32.916Z,41.80
2018-06-14T03:26:32.895Z,39.90
2018-06-14T03:27:32.875Z,41.00
2018-06-14T03:28:32.851Z,38.70
2018-06-14T03:29:32.832Z,37.70
2018-06-14T03:30:32.811Z,38.40
2018-06-14T03:31:32.790Z,37.50
2018-06-14T03:32:32.768Z,35.50
2018-06-14T03:33:32.747Z,35.60
2018-06-14T03:35:08.966Z,38.60
2018-06-14T03:35:32.704Z,33.00
2018-06-14T03:36:32.685Z,34.30
2018-06-14T03:37:32.661Z,31.60
2018-06-14T03:38:32.640Z,30.50
2018-06-14T03:39:32.619Z,33.20
2018-06-14T03:40:32.597Z,35.00
2018-06-14T03:41:32.578Z,29.50
2018-06-14T03:42:32.553Z,36.60
2018-06-14T03:43:32.532Z,30.50
2018-06-14T03:44:32.510Z,32.60
2018-06-14T03:45:32.493Z,29.50
2018-06-14T03:46:32.501Z,29.50
2018-06-14T03:47:32.445Z,28.50
2018-06-14T03:48:32.424Z,29.10
2018-06-14T03:49:32.403Z,27.80
2018-06-14T03:50:32.381Z,26.00
2018-06-14T03:51:32.366Z,25.60
2018-06-14T03:52:32.338Z,29.40
2018-06-14T03:53:32.318Z,27.80
2018-06-14T03:54:32.295Z,27.60
2018-06-14T03:55:32.275Z,30.30
2018-06-14T03:56:32.251Z,26.70
2018-06-14T03:57:32.234Z,25.60
2018-06-14T03:58:32.209Z,24.50
2018-06-14T03:59:32.188Z,22.40
2018-06-14T04:00:32.166Z,23.20
2018-06-14T04:01:32.145Z,24.30
2018-06-14T04:02:32.124Z,23.60
2018-06-14T04:03:32.105Z,28.40
2018-06-14T04:04:32.086Z,26.10
2018-06-14T04:05:32.059Z,24.50
2018-06-14T04:06:32.043Z,27.00
2018-06-14T04:07:32.018Z,24.30
2018-06-14T04:08:31.993Z,26.20
2018-06-14T04:09:31.978Z,24.10
2018-06-14T04:10:31.952Z,21.30
2018-06-14T04:11:31.929Z,20.50
2018-06-14T04:12:31.908Z,24.60
2018-06-14T04:13:31.887Z,23.10
2018-06-14T04:14:31.870Z,19.30
2018-06-14T04:15:31.843Z,20.80
2018-06-14T04:16:31.821Z,22.40
2018-06-14T04:17:31.800Z,24.80
2018-06-14T04:18:31.850Z,21.10
2018-06-14T04:19:31.757Z,20.30
2018-06-14T04:20:31.818Z,19.40
2018-06-14T04:21:31.714Z,20.80
2018-06-14T04:22:31.693Z,26.20
2018-06-14T04:23:31.672Z,24.60
2018-06-14T04:24:31.651Z,20.40
2018-06-14T04:25:31.629Z,21.20
2018-06-14T04:26:31.609Z,20.40
2018-06-14T04:27:31.646Z,21.10
2018-06-14T04:28:31.566Z,24.90
2018-06-14T04:29:31.545Z,22.10
2018-06-14T04:30:31.524Z,24.60
2018-06-14T04:31:31.503Z,21.00
2018-06-14T04:32:31.479Z,20.40
2018-06-14T04:33:31.459Z,21.50
2018-06-14T04:34:31.439Z,20.50
2018-06-14T04:35:31.416Z,25.30
2018-06-14T04:36:31.394Z,20.20
2018-06-14T04:37:31.373Z,21.40
2018-06-14T04:38:31.352Z,23.20
2018-06-14T04:39:31.332Z,21.90
2018-06-14T04:40:31.311Z,23.10
2018-06-14T04:41:31.289Z,22.80
2018-06-14T04:42:31.269Z,22.00
2018-06-14T04:43:31.247Z,24.50
2018-06-14T04:44:31.225Z,20.70
2018-06-14T04:45:31.206Z,22.30
2018-06-14T04:46:31.185Z,20.60
2018-06-14T04:47:31.164Z,20.40
2018-06-14T04:48:31.140Z,22.10
2018-06-14T04:49:31.120Z,20.80
2018-06-14T04:50:31.099Z,19.70
2018-06-14T04:51:31.079Z,24.00
2018-06-14T04:52:31.056Z,22.80
2018-06-14T04:53:31.072Z,23.10
2018-06-14T04:54:31.015Z,23.50
2018-06-14T04:55:30.995Z,23.60
2018-06-14T04:56:30.973Z,21.90
2018-06-14T04:57:30.951Z,27.50
2018-06-14T04:58:31.682Z,21.20
2018-06-14T04:59:30.909Z,20.70
2018-06-14T05:00:30.887Z,21.20
2018-06-14T05:01:30.866Z,19.50
2018-06-14T05:02:30.859Z,19.90
2018-06-14T05:03:30.825Z,22.00
2018-06-14T05:04:30.803Z,21.10
2018-06-14T05:05:30.783Z,20.50
2018-06-14T05:06:30.762Z,21.90
2018-06-14T05:07:30.745Z,22.20
2018-06-14T05:08:30.720Z,21.60
2018-06-14T05:09:30.698Z,23.50
2018-06-14T05:10:30.678Z,19.40
2018-06-14T05:11:30.657Z,19.50
2018-06-14T05:12:30.635Z,23.70
2018-06-14T05:13:30.616Z,21.20
2018-06-14T05:14:30.594Z,22.80
2018-06-14T05:15:30.575Z,21.60
2018-06-14T05:16:30.552Z,21.30
2018-06-14T05:17:30.532Z,20.40
2018-06-14T05:18:30.514Z,20.00
2018-06-14T05:19:30.491Z,21.80
2018-06-14T05:20:30.468Z,22.60
2018-06-14T05:21:30.447Z,22.60
2018-06-14T05:22:30.428Z,21.00
2018-06-14T05:23:30.422Z,22.40
2018-06-14T05:24:30.390Z,27.10
2018-06-14T05:25:30.465Z,24.50
2018-06-14T05:26:30.344Z,22.00
2018-06-14T05:27:30.324Z,26.50
2018-06-14T05:28:30.304Z,22.80
2018-06-14T05:29:30.281Z,22.50
2018-06-14T05:30:30.262Z,21.80
2018-06-14T05:31:30.241Z,23.20
2018-06-14T05:32:30.219Z,22.70
2018-06-14T05:33:30.197Z,22.20
2018-06-14T05:34:30.178Z,20.00
2018-06-14T05:35:30.157Z,23.20
2018-06-14T05:36:30.136Z,22.80
2018-06-14T05:37:30.115Z,23.60
2018-06-14T05:38:30.095Z,20.80
2018-06-14T05:39:30.074Z,20.30
2018-06-14T05:40:30.053Z,20.00
2018-06-14T05:41:30.033Z,19.20
2018-06-14T05:42:30.063Z,20.50
2018-06-14T05:43:29.990Z,21.90
2018-06-14T05:44:29.971Z,20.40
2018-06-14T05:45:29.948Z,19.50
2018-06-14T05:46:29.929Z,17.80
2018-06-14T05:47:29.908Z,20.80
2018-06-14T05:48:29.886Z,23.10
2018-06-14T05:49:29.866Z,18.40
2018-06-14T05:50:29.846Z,19.50
2018-06-14T05:51:29.825Z,20.60
2018-06-14T05:52:30.553Z,20.20
2018-06-14T05:53:29.783Z,18.80
2018-06-14T05:54:29.761Z,17.70
2018-06-14T05:55:29.742Z,18.30
2018-06-14T05:56:29.719Z,20.60
2018-06-14T05:57:29.699Z,19.60
2018-06-14T05:58:29.678Z,19.00
2018-06-14T05:59:29.657Z,21.00
2018-06-14T06:00:29.636Z,19.50
2018-06-14T06:01:29.616Z,18.20
2018-06-14T06:02:29.596Z,17.50
2018-06-14T06:03:30.327Z,17.90
2018-06-14T06:04:29.554Z,18.70
2018-06-14T06:05:29.532Z,20.10
2018-06-14T06:06:29.514Z,20.00
2018-06-14T06:07:29.493Z,17.10
2018-06-14T06:08:29.488Z,17.30
2018-06-14T06:09:29.451Z,17.20
2018-06-14T06:10:29.430Z,16.40
2018-06-14T06:11:29.411Z,17.00
2018-06-14T06:12:29.389Z,19.20
2018-06-14T06:13:29.368Z,17.50
2018-06-14T06:14:29.349Z,17.00
2018-06-14T06:15:29.329Z,15.40
2018-06-14T06:16:29.307Z,17.80
2018-06-14T06:17:29.286Z,15.60
2018-06-14T06:18:29.268Z,15.90
2018-06-14T06:19:29.247Z,16.00
2018-06-14T06:20:29.225Z,16.80
2018-06-14T06:21:29.209Z,16.60
2018-06-14T06:22:29.185Z,15.40
2018-06-14T06:23:29.186Z,19.80
2018-06-14T06:24:29.143Z,18.00
2018-06-14T06:25:29.123Z,17.50
2018-06-14T06:26:29.236Z,17.50
2018-06-14T06:27:29.082Z,16.50
2018-06-14T06:28:29.061Z,17.30
2018-06-14T06:29:29.042Z,17.70
2018-06-14T06:30:29.022Z,17.70
2018-06-14T06:31:29.000Z,17.40
2018-06-14T06:32:28.982Z,17.30
2018-06-14T06:33:29.066Z,18.90
2018-06-14T06:34:28.940Z,17.90
2018-06-14T06:35:29.675Z,18.60
2018-06-14T06:36:28.900Z,16.50
2018-06-14T06:37:28.885Z,20.80
2018-06-14T06:38:28.860Z,20.70
2018-06-14T06:39:28.842Z,16.50
2018-06-14T06:40:28.818Z,15.60
2018-06-14T06:41:28.800Z,18.10
2018-06-14T06:42:28.780Z,17.00
2018-06-14T06:43:28.761Z,17.20
2018-06-14T06:44:28.738Z,14.30
2018-06-14T06:45:28.724Z,17.10
2018-06-14T06:46:28.701Z,16.40
2018-06-14T06:47:28.681Z,15.60
2018-06-14T06:48:28.660Z,15.50
2018-06-14T06:49:28.641Z,14.30
2018-06-14T06:50:28.622Z,16.20
2018-06-14T06:51:28.603Z,16.70
2018-06-14T06:52:28.582Z,15.80
2018-06-14T06:53:28.563Z,16.30
2018-06-14T06:54:28.545Z,17.70
2018-06-14T06:55:28.524Z,16.10
2018-06-14T06:56:28.504Z,16.40
2018-06-14T06:57:28.485Z,17.10
2018-06-14T06:58:28.469Z,15.20
2018-06-14T06:59:28.448Z,15.80
2018-06-14T07:00:28.428Z,16.00
2018-06-14T07:01:28.409Z,15.20
2018-06-14T07:02:29.141Z,16.70
2018-06-14T07:03:28.372Z,17.00
2018-06-14T07:04:28.351Z,16.10
2018-06-14T07:05:28.334Z,17.10
2018-06-14T07:06:28.378Z,15.40
2018-06-14T07:07:28.295Z,16.60
2018-06-14T07:08:28.275Z,14.90
2018-06-14T07:09:28.257Z,15.60
2018-06-14T07:10:28.237Z,16.00
2018-06-14T07:11:28.276Z,14.60
2018-06-14T07:12:28.199Z,14.00
2018-06-14T07:13:28.184Z,14.40
2018-06-14T07:14:28.161Z,16.10
2018-06-14T07:15:28.143Z,16.00
2018-06-14T07:16:28.124Z,15.80
2018-06-14T07:17:28.105Z,15.10
2018-06-14T07:18:28.085Z,15.10
2018-06-14T07:19:28.067Z,18.40
2018-06-14T07:20:28.048Z,17.40
2018-06-14T07:21:28.116Z,16.70
2018-06-14T07:22:28.009Z,15.40
2018-06-14T07:23:28.042Z,15.40
2018-06-14T07:24:27.976Z,16.00
2018-06-14T07:25:27.952Z,15.10
2018-06-14T07:26:27.934Z,14.70
2018-06-14T07:27:27.915Z,16.10
2018-06-14T07:28:27.897Z,16.60
2018-06-14T07:29:27.879Z,17.30
2018-06-14T07:30:27.861Z,16.30
2018-06-14T07:31:27.849Z,16.20
2018-06-14T07:32:27.824Z,16.30
2018-06-14T07:33:27.806Z,16.00
2018-06-14T07:34:27.788Z,15.80
2018-06-14T07:35:27.769Z,16.60
2018-06-14T07:36:27.752Z,16.50
2018-06-14T07:37:27.733Z,14.90
2018-06-14T07:38:27.715Z,15.70
2018-06-14T07:39:27.696Z,16.50
2018-06-14T07:40:27.677Z,16.40
2018-06-14T07:41:27.663Z,15.20
2018-06-14T07:42:27.643Z,18.10
2018-06-14T07:43:27.624Z,14.80
2018-06-14T07:44:27.606Z,14.70
2018-06-14T07:45:27.588Z,14.60
2018-06-14T07:46:27.571Z,15.00
2018-06-14T07:47:27.553Z,15.20
2018-06-14T07:48:27.534Z,15.50
2018-06-14T07:49:27.516Z,14.60
2018-06-14T07:50:27.499Z,14.90
2018-06-14T07:51:27.479Z,14.30
2018-06-14T07:52:27.467Z,14.10
2018-06-14T07:53:27.442Z,13.50
2018-06-14T07:54:27.426Z,14.80
2018-06-14T07:55:27.408Z,15.30
2018-06-14T07:56:27.388Z,14.40
2018-06-14T07:57:27.371Z,14.50
2018-06-14T07:58:27.352Z,14.00
2018-06-14T07:59:27.334Z,13.30
2018-06-14T08:00:27.319Z,14.40
2018-06-14T08:01:27.299Z,14.40
2018-06-14T08:02:27.280Z,13.20
2018-06-14T08:03:27.262Z,14.50
2018-06-14T08:04:27.245Z,17.30
2018-06-14T08:05:27.226Z,16.30
2018-06-14T08:06:27.229Z,12.40
2018-06-14T08:07:27.192Z,12.90
2018-06-14T08:08:27.174Z,14.30
2018-06-14T08:09:27.155Z,12.60
2018-06-14T08:10:27.139Z,13.40
2018-06-14T08:11:27.121Z,12.70
2018-06-14T08:12:27.127Z,12.50
2018-06-14T08:13:27.085Z,11.70
2018-06-14T08:14:27.067Z,13.30
2018-06-14T08:15:27.049Z,12.70
2018-06-14T08:16:27.032Z,14.40
2018-06-14T08:17:27.014Z,13.90
2018-06-14T08:18:26.998Z,11.60
2018-06-14T08:19:26.978Z,12.70
2018-06-14T08:20:26.961Z,11.90
2018-06-14T08:21:26.942Z,13.80
2018-06-14T08:22:26.925Z,12.60
2018-06-14T08:23:26.912Z,11.50
2018-06-14T08:24:26.890Z,11.00
2018-06-14T08:25:26.872Z,13.70
2018-06-14T08:26:26.857Z,11.10
2018-06-14T08:27:26.840Z,13.70
2018-06-14T08:28:26.821Z,11.00
2018-06-14T08:29:26.808Z,13.40
2018-06-14T08:30:26.786Z,11.00
2018-06-14T08:31:26.770Z,10.20
2018-06-14T08:32:26.751Z,10.30
2018-06-14T08:33:26.740Z,10.00
2018-06-14T08:34:26.718Z,11.30
2018-06-14T08:35:26.701Z,10.90
2018-06-14T08:36:26.683Z,11.30
2018-06-14T08:37:26.664Z,12.60
2018-06-14T08:38:26.648Z,11.40
2018-06-14T08:39:26.634Z,14.30
2018-06-14T08:40:26.613Z,12.50
2018-06-14T08:41:26.596Z,12.80
2018-06-14T08:42:31.086Z,11.90
2018-06-14T08:43:26.562Z,12.70
2018-06-14T08:44:26.544Z,11.50
2018-06-14T08:45:26.527Z,11.70
2018-06-14T08:46:26.510Z,11.00
2018-06-14T08:47:26.493Z,13.70
2018-06-14T08:48:27.225Z,12.30
2018-06-14T08:49:26.458Z,11.30
2018-06-14T08:50:26.442Z,12.20
2018-06-14T08:51:26.423Z,11.20
2018-06-14T08:52:26.406Z,11.40
2018-06-14T08:53:26.387Z,12.60
2018-06-14T08:54:26.371Z,10.30
2018-06-14T08:55:26.354Z,11.80
2018-06-14T08:56:26.336Z,13.50
2018-06-14T08:57:26.319Z,12.30
2018-06-14T08:58:26.302Z,11.60
2018-06-14T08:59:29.289Z,10.30
2018-06-14T09:00:26.267Z,15.90
2018-06-14T09:01:26.250Z,11.30
2018-06-14T09:02:26.233Z,10.50
2018-06-14T09:03:28.118Z,10.00
2018-06-14T09:04:26.199Z,10.40
2018-06-14T09:05:26.182Z,10.40
2018-06-14T09:06:26.166Z,11.70
2018-06-14T09:07:26.149Z,9.70
2018-06-14T09:08:26.131Z,10.60
2018-06-14T09:09:26.115Z,10.10
2018-06-14T09:10:26.097Z,12.00
2018-06-14T09:11:26.081Z,9.70
2018-06-14T09:12:26.063Z,10.10
2018-06-14T09:13:26.046Z,10.70
2018-06-14T09:14:26.029Z,9.00
2018-06-14T09:15:26.013Z,9.00
2018-06-14T09:16:27.496Z,9.40
2018-06-14T09:17:25.978Z,9.30
2018-06-14T09:18:25.961Z,10.40
2018-06-14T09:19:25.945Z,9.70
2018-06-14T09:20:25.927Z,10.30
2018-06-14T09:21:25.911Z,10.70
2018-06-14T09:22:28.898Z,10.60
2018-06-14T09:23:25.878Z,9.10
2018-06-14T09:24:25.861Z,9.40
2018-06-14T09:25:25.846Z,9.40
2018-06-14T09:26:25.832Z,9.10
2018-06-14T09:27:25.813Z,11.40
2018-06-14T09:28:25.797Z,9.50
2018-06-14T09:29:25.780Z,10.80
2018-06-14T09:30:25.766Z,10.50
2018-06-14T09:31:25.748Z,11.10
2018-06-14T09:32:25.734Z,10.40
2018-06-14T09:33:25.715Z,12.00
2018-06-14T09:34:25.699Z,10.50
2018-06-14T09:35:25.683Z,10.70
2018-06-14T09:36:25.667Z,11.30
2018-06-14T09:37:25.650Z,10.30
2018-06-14T09:38:25.634Z,9.50
2018-06-14T09:39:25.617Z,10.80
2018-06-14T09:40:25.601Z,11.10
2018-06-14T09:41:25.584Z,9.50
2018-06-14T09:42:25.569Z,13.30
2018-06-14T09:43:25.552Z,11.40
2018-06-14T09:44:25.535Z,9.80
2018-06-14T09:45:25.521Z,11.50
2018-06-14T09:46:25.505Z,9.30
2018-06-14T09:47:25.487Z,13.00
2018-06-14T09:48:25.469Z,10.40
2018-06-14T09:49:25.453Z,13.70
2018-06-14T09:50:29.192Z,9.70
2018-06-14T09:51:25.422Z,11.20
2018-06-14T09:52:25.405Z,9.70
2018-06-14T09:53:25.388Z,10.50
2018-06-14T09:54:25.373Z,9.70
2018-06-14T09:55:25.355Z,10.20
2018-06-14T09:56:25.340Z,9.70
2018-06-14T09:57:25.323Z,10.60
2018-06-14T09:58:25.309Z,10.30
2018-06-14T09:59:25.291Z,8.90
2018-06-14T10:00:25.331Z,9.00
2018-06-14T10:01:25.258Z,9.10
2018-06-14T10:02:25.241Z,10.60
2018-06-14T10:03:25.225Z,7.80
2018-06-14T10:04:25.210Z,7.90
2018-06-14T10:05:25.194Z,9.20
2018-06-14T10:06:25.177Z,7.70
2018-06-14T10:07:25.160Z,10.20
2018-06-14T10:08:25.143Z,9.70
2018-06-14T10:09:25.127Z,8.50
2018-06-14T10:10:25.111Z,8.70
2018-06-14T10:11:25.096Z,9.30
2018-06-14T10:12:25.079Z,8.70
2018-06-14T10:13:25.063Z,9.50
2018-06-14T10:14:25.048Z,11.70
2018-06-14T10:15:25.032Z,9.60
2018-06-14T10:16:25.016Z,9.30
2018-06-14T10:17:25.000Z,8.40
2018-06-14T10:18:24.987Z,9.00
2018-06-14T10:19:24.970Z,10.10
2018-06-14T10:20:24.953Z,12.70
2018-06-14T10:21:24.939Z,8.80
2018-06-14T10:22:24.922Z,9.80
2018-06-14T10:23:24.909Z,9.50
2018-06-14T10:24:24.892Z,9.90
2018-06-14T10:25:24.877Z,10.50
2018-06-14T10:26:24.866Z,9.40
2018-06-14T10:27:24.849Z,9.90
2018-06-14T10:28:24.829Z,9.60
2018-06-14T10:29:24.872Z,8.30
2018-06-14T10:30:24.800Z,9.10
2018-06-14T10:31:24.787Z,9.50
2018-06-14T10:32:24.770Z,9.30
2018-06-14T10:33:27.006Z,9.20
2018-06-14T10:34:24.739Z,8.90
2018-06-14T10:35:24.722Z,9.70
2018-06-14T10:36:24.706Z,8.20
2018-06-14T10:37:24.693Z,8.70
2018-06-14T10:38:24.678Z,12.00
2018-06-14T10:39:24.662Z,9.00
2018-06-14T10:40:24.645Z,8.80
2018-06-14T10:41:24.630Z,7.80
2018-06-14T10:42:24.614Z,8.50
2018-06-14T10:43:24.620Z,9.20
2018-06-14T10:44:24.584Z,9.80
2018-06-14T10:45:24.573Z,7.80
2018-06-14T10:46:24.555Z,7.60
2018-06-14T10:47:24.538Z,8.60
2018-06-14T10:48:24.523Z,10.10
2018-06-14T10:49:24.510Z,9.70
2018-06-14T10:50:25.243Z,8.50
2018-06-14T10:51:24.482Z,7.70
2018-06-14T10:52:24.473Z,7.50
2018-06-14T10:53:24.446Z,8.00
2018-06-14T10:54:24.431Z,8.50
2018-06-14T10:55:24.416Z,7.80
2018-06-14T10:56:24.400Z,7.80
2018-06-14T10:57:24.385Z,8.30
2018-06-14T10:58:24.370Z,7.70
2018-06-14T10:59:24.355Z,9.10
2018-06-14T11:00:24.339Z,8.80
2018-06-14T11:01:24.324Z,7.80
2018-06-14T11:02:24.309Z,7.30
2018-06-14T11:03:24.294Z,7.70
2018-06-14T11:04:24.279Z,7.60
2018-06-14T11:05:24.264Z,7.10
2018-06-14T11:06:24.249Z,7.70
2018-06-14T11:07:24.234Z,7.00
2018-06-14T11:08:24.218Z,6.70
2018-06-14T11:09:24.203Z,7.50
2018-06-14T11:10:24.190Z,6.50
2018-06-14T11:11:24.174Z,7.00
2018-06-14T11:12:24.158Z,6.10
2018-06-14T11:13:24.145Z,7.40
2018-06-14T11:14:24.130Z,7.20
2018-06-14T11:15:24.115Z,6.60
2018-06-14T11:16:24.100Z,9.00
2018-06-14T11:17:24.085Z,7.20
2018-06-14T11:18:24.070Z,7.40
2018-06-14T11:19:24.056Z,7.60
2018-06-14T11:20:24.116Z,8.50
2018-06-14T11:21:24.026Z,9.00
2018-06-14T11:22:24.010Z,7.20
2018-06-14T11:23:23.997Z,7.30
2018-06-14T11:24:23.981Z,10.40
2018-06-14T11:25:23.966Z,6.90
2018-06-14T11:26:23.951Z,9.70
2018-06-14T11:27:23.936Z,8.20
2018-06-14T11:28:23.921Z,10.20
2018-06-14T11:29:23.906Z,9.10
2018-06-14T11:30:23.892Z,8.20
2018-06-14T11:31:23.877Z,7.40
2018-06-14T11:32:23.861Z,7.40
2018-06-14T11:33:26.852Z,7.50
2018-06-14T11:34:23.833Z,7.10
2018-06-14T11:35:23.818Z,7.10
2018-06-14T11:36:23.802Z,7.10
2018-06-14T11:37:23.787Z,6.90
2018-06-14T11:38:23.772Z,7.00
2018-06-14T11:39:28.264Z,6.70
2018-06-14T11:40:23.743Z,6.60
2018-06-14T11:41:23.727Z,7.50
2018-06-14T11:42:23.716Z,7.10
2018-06-14T11:43:23.697Z,6.40
2018-06-14T11:44:23.682Z,6.50
2018-06-14T11:45:23.666Z,6.30
2018-06-14T11:46:23.652Z,6.40
2018-06-14T11:47:23.640Z,5.90
2018-06-14T11:48:23.685Z,6.70
2018-06-14T11:49:23.606Z,6.30
2018-06-14T11:50:23.591Z,8.20
2018-06-14T11:51:23.577Z,8.70
2018-06-14T11:52:23.559Z,6.20
2018-06-14T11:53:23.544Z,5.50
2018-06-14T11:54:23.530Z,8.00
2018-06-14T11:55:23.516Z,7.20
2018-06-14T11:56:23.498Z,6.50
2018-06-14T11:57:23.486Z,6.50
2018-06-14T11:58:23.468Z,6.80
2018-06-14T11:59:23.455Z,6.90
2018-06-14T12:00:23.439Z,6.90
2018-06-14T12:01:24.175Z,6.20
2018-06-14T12:02:23.409Z,8.20
2018-06-14T12:03:23.393Z,7.50
2018-06-14T12:04:23.377Z,7.30
2018-06-14T12:05:23.364Z,6.30
2018-06-14T12:06:23.347Z,7.60
2018-06-14T12:07:23.334Z,6.70
2018-06-14T12:08:23.373Z,6.60
2018-06-14T12:09:23.305Z,6.10
2018-06-14T12:10:23.286Z,6.60
2018-06-14T12:11:23.270Z,9.50
2018-06-14T12:12:23.255Z,6.90
2018-06-14T12:13:23.240Z,5.60
2018-06-14T12:14:23.223Z,5.40
2018-06-14T12:15:23.208Z,6.50
2018-06-14T12:16:23.192Z,5.40
2018-06-14T12:17:23.227Z,7.90
2018-06-14T12:18:23.161Z,7.20
2018-06-14T12:19:23.146Z,6.70
2018-06-14T12:20:23.130Z,6.40
2018-06-14T12:21:23.118Z,6.70
2018-06-14T12:22:23.099Z,5.90
2018-06-14T12:23:23.083Z,6.40
2018-06-14T12:24:23.068Z,6.20
2018-06-14T12:25:23.052Z,5.80
2018-06-14T12:26:23.036Z,6.80
2018-06-14T12:27:23.022Z,7.30
2018-06-14T12:28:23.005Z,7.00
2018-06-14T12:29:22.989Z,6.70
2018-06-14T12:30:22.975Z,6.80
2018-06-14T12:31:22.958Z,6.30
2018-06-14T12:32:22.943Z,7.20
2018-06-14T12:33:22.934Z,7.60
2018-06-14T12:34:22.911Z,5.80
2018-06-14T12:35:22.896Z,5.90
2018-06-14T12:36:22.879Z,6.10
2018-06-14T12:37:22.865Z,6.30
2018-06-14T12:38:22.850Z,6.40
2018-06-14T12:39:22.834Z,6.70
2018-06-14T12:40:22.818Z,6.50
2018-06-14T12:41:22.802Z,5.20
2018-06-14T12:42:22.788Z,5.30
2018-06-14T12:43:22.771Z,8.00
2018-06-14T12:44:22.759Z,6.80
2018-06-14T12:45:22.748Z,8.70
2018-06-14T12:46:22.726Z,8.00
2018-06-14T12:47:22.712Z,7.20
2018-06-14T12:48:22.695Z,7.00
2018-06-14T12:49:22.681Z,6.20
2018-06-14T12:50:22.667Z,5.60
2018-06-14T12:51:22.651Z,6.70
2018-06-14T12:52:22.670Z,6.20
2018-06-14T12:53:22.621Z,6.80
2018-06-14T12:54:22.607Z,6.30
2018-06-14T12:55:22.592Z,5.80
2018-06-14T12:56:22.576Z,5.30
2018-06-14T12:57:22.562Z,7.70
2018-06-14T12:58:23.299Z,5.30